sensor_id;sensor_type;location;lat;lon;timestamp;temperature;humidity
71096;DHT22;58753;49.440;11.126;2023-05-10T00:00:27;14.19;73.08
71096;DHT22;58753;49.440;11.126;2023-05-10T00:02:52;14.17;73.14
71096;DHT22;58753;49.440;11.126;2023-05-10T00:05:17;14.17;73.45
71096;DHT22;58753;49.440;11.126;2023-05-10T00:07:43;14.11;73.96
71096;DHT22;58753;49.440;11.126;2023-05-10T00:10:10;14.05;74.53
71096;DHT22;58753;49.440;11.126;2023-05-10T00:12:36;14.01;75.14
71096;DHT22;58753;49.440;11.126;2023-05-10T00:15:02;13.91;75.72
71096;DHT22;58753;49.440;11.126;2023-05-10T00:17:28;13.87;76.20
71096;DHT22;58753;49.440;11.126;2023-05-10T00:19:53;13.85;76.99
71096;DHT22;58753;49.440;11.126;2023-05-10T00:22:19;13.82;77.44
71096;DHT22;58753;49.440;11.126;2023-05-10T00:24:45;13.81;78.05
71096;DHT22;58753;49.440;11.126;2023-05-10T00:27:10;13.77;78.45
71096;DHT22;58753;49.440;11.126;2023-05-10T00:29:35;13.73;78.97
71096;DHT22;58753;49.440;11.126;2023-05-10T00:32:01;13.68;79.34
71096;DHT22;58753;49.440;11.126;2023-05-10T00:34:26;13.68;79.97
71096;DHT22;58753;49.440;11.126;2023-05-10T00:36:52;13.67;80.30
71096;DHT22;58753;49.440;11.126;2023-05-10T00:39:17;13.57;80.62
71096;DHT22;58753;49.440;11.126;2023-05-10T00:41:43;13.58;81.32
71096;DHT22;58753;49.440;11.126;2023-05-10T00:44:08;13.57;81.58
71096;DHT22;58753;49.440;11.126;2023-05-10T00:46:34;13.50;81.84
71096;DHT22;58753;49.440;11.126;2023-05-10T00:49:00;13.50;82.27
71096;DHT22;58753;49.440;11.126;2023-05-10T00:51:25;13.44;82.70
71096;DHT22;58753;49.440;11.126;2023-05-10T00:53:51;13.42;83.03
71096;DHT22;58753;49.440;11.126;2023-05-10T00:56:17;13.42;83.38
71096;DHT22;58753;49.440;11.126;2023-05-10T00:58:42;13.37;83.64
71096;DHT22;58753;49.440;11.126;2023-05-10T01:01:08;13.36;84.09
71096;DHT22;58753;49.440;11.126;2023-05-10T01:03:34;13.35;84.32
71096;DHT22;58753;49.440;11.126;2023-05-10T01:06:01;13.30;84.53
71096;DHT22;58753;49.440;11.126;2023-05-10T01:08:26;13.33;84.91
71096;DHT22;58753;49.440;11.126;2023-05-10T01:10:52;13.33;85.10
71096;DHT22;58753;49.440;11.126;2023-05-10T01:13:32;13.30;85.40
71096;DHT22;58753;49.440;11.126;2023-05-10T01:15:59;13.32;85.72
71096;DHT22;58753;49.440;11.126;2023-05-10T01:18:27;13.30;85.98
71096;DHT22;58753;49.440;11.126;2023-05-10T01:21:03;13.30;86.00
71096;DHT22;58753;49.440;11.126;2023-05-10T01:32:36;13.19;87.03
71096;DHT22;58753;49.440;11.126;2023-05-10T01:37:47;13.10;87.39
71096;DHT22;58753;49.440;11.126;2023-05-10T01:40:26;13.12;87.72
71096;DHT22;58753;49.440;11.126;2023-05-10T01:43:00;13.09;87.83
71096;DHT22;58753;49.440;11.126;2023-05-10T01:45:47;13.07;88.05
71096;DHT22;58753;49.440;11.126;2023-05-10T01:48:14;13.06;88.23
71096;DHT22;58753;49.440;11.126;2023-05-10T01:50:43;13.03;88.46
71096;DHT22;58753;49.440;11.126;2023-05-10T01:53:10;13.06;88.67
71096;DHT22;58753;49.440;11.126;2023-05-10T01:55:43;13.06;88.71
71096;DHT22;58753;49.440;11.126;2023-05-10T01:58:14;13.06;88.94
71096;DHT22;58753;49.440;11.126;2023-05-10T02:00:42;13.06;89.15
71096;DHT22;58753;49.440;11.126;2023-05-10T02:03:09;13.09;89.27
71096;DHT22;58753;49.440;11.126;2023-05-10T02:05:36;13.07;89.14
71096;DHT22;58753;49.440;11.126;2023-05-10T02:08:05;13.09;89.30
71096;DHT22;58753;49.440;11.126;2023-05-10T02:10:32;13.03;89.32
71096;DHT22;58753;49.440;11.126;2023-05-10T02:12:59;13.02;89.55
71096;DHT22;58753;49.440;11.126;2023-05-10T02:15:26;13.03;89.60
71096;DHT22;58753;49.440;11.126;2023-05-10T02:17:54;13.00;89.85
71096;DHT22;58753;49.440;11.126;2023-05-10T02:20:21;13.00;89.88
71096;DHT22;58753;49.440;11.126;2023-05-10T02:22:49;13.05;90.21
71096;DHT22;58753;49.440;11.126;2023-05-10T02:25:18;13.07;90.20
71096;DHT22;58753;49.440;11.126;2023-05-10T02:27:44;13.06;90.13
71096;DHT22;58753;49.440;11.126;2023-05-10T02:30:11;13.06;90.29
71096;DHT22;58753;49.440;11.126;2023-05-10T02:32:37;13.07;90.42
71096;DHT22;58753;49.440;11.126;2023-05-10T02:35:03;13.10;90.58
71096;DHT22;58753;49.440;11.126;2023-05-10T02:37:29;13.10;90.66
71096;DHT22;58753;49.440;11.126;2023-05-10T02:39:56;13.12;90.78
71096;DHT22;58753;49.440;11.126;2023-05-10T02:42:27;13.15;90.98
71096;DHT22;58753;49.440;11.126;2023-05-10T02:44:56;13.17;91.02
71096;DHT22;58753;49.440;11.126;2023-05-10T02:47:22;13.23;91.16
71096;DHT22;58753;49.440;11.126;2023-05-10T02:49:47;13.32;91.26
71096;DHT22;58753;49.440;11.126;2023-05-10T02:52:16;13.30;91.17
71096;DHT22;58753;49.440;11.126;2023-05-10T02:54:45;13.36;91.29
71096;DHT22;58753;49.440;11.126;2023-05-10T02:57:27;13.37;91.35
71096;DHT22;58753;49.440;11.126;2023-05-10T02:59:54;13.40;91.31
71096;DHT22;58753;49.440;11.126;2023-05-10T03:02:20;13.39;91.41
71096;DHT22;58753;49.440;11.126;2023-05-10T03:04:46;13.42;91.60
71096;DHT22;58753;49.440;11.126;2023-05-10T03:07:11;13.46;91.68
71096;DHT22;58753;49.440;11.126;2023-05-10T03:09:37;13.50;91.77
71096;DHT22;58753;49.440;11.126;2023-05-10T03:15:19;13.54;91.74
71096;DHT22;58753;49.440;11.126;2023-05-10T03:18:07;13.53;91.77
71096;DHT22;58753;49.440;11.126;2023-05-10T03:20:39;13.50;91.72
71096;DHT22;58753;49.440;11.126;2023-05-10T03:26:04;13.40;91.71
71096;DHT22;58753;49.440;11.126;2023-05-10T03:28:30;13.40;91.92
71096;DHT22;58753;49.440;11.126;2023-05-10T03:30:57;13.39;91.95
71096;DHT22;58753;49.440;11.126;2023-05-10T03:33:24;13.39;92.14
71096;DHT22;58753;49.440;11.126;2023-05-10T03:35:49;13.37;92.13
71096;DHT22;58753;49.440;11.126;2023-05-10T03:38:14;13.36;92.02
71096;DHT22;58753;49.440;11.126;2023-05-10T03:40:40;13.32;92.08
71096;DHT22;58753;49.440;11.126;2023-05-10T03:43:05;13.28;92.04
71096;DHT22;58753;49.440;11.126;2023-05-10T03:45:31;13.22;92.04
71096;DHT22;58753;49.440;11.126;2023-05-10T03:47:59;13.19;92.16
71096;DHT22;58753;49.440;11.126;2023-05-10T03:50:25;13.15;92.13
71096;DHT22;58753;49.440;11.126;2023-05-10T03:52:52;13.12;92.12
71096;DHT22;58753;49.440;11.126;2023-05-10T03:55:17;13.10;92.12
71096;DHT22;58753;49.440;11.126;2023-05-10T03:57:43;13.06;92.19
71096;DHT22;58753;49.440;11.126;2023-05-10T04:00:09;13.03;92.37
71096;DHT22;58753;49.440;11.126;2023-05-10T04:02:35;13.02;92.39
71096;DHT22;58753;49.440;11.126;2023-05-10T04:05:01;13.03;92.54
71096;DHT22;58753;49.440;11.126;2023-05-10T04:07:26;13.02;92.43
71096;DHT22;58753;49.440;11.126;2023-05-10T04:09:51;12.97;92.41
71096;DHT22;58753;49.440;11.126;2023-05-10T04:12:17;12.96;92.48
71096;DHT22;58753;49.440;11.126;2023-05-10T04:14:42;12.97;92.43
71096;DHT22;58753;49.440;11.126;2023-05-10T04:17:08;12.93;92.48
71096;DHT22;58753;49.440;11.126;2023-05-10T04:19:33;12.93;92.64
71096;DHT22;58753;49.440;11.126;2023-05-10T04:21:58;12.95;92.38
71096;DHT22;58753;49.440;11.126;2023-05-10T04:24:24;12.89;92.38
71096;DHT22;58753;49.440;11.126;2023-05-10T04:26:50;12.88;92.50
71096;DHT22;58753;49.440;11.126;2023-05-10T04:29:15;12.88;92.56
71096;DHT22;58753;49.440;11.126;2023-05-10T04:31:41;12.86;92.46
71096;DHT22;58753;49.440;11.126;2023-05-10T04:34:06;12.85;92.41
71096;DHT22;58753;49.440;11.126;2023-05-10T04:36:31;12.82;92.50
71096;DHT22;58753;49.440;11.126;2023-05-10T04:39:02;12.81;92.48
71096;DHT22;58753;49.440;11.126;2023-05-10T04:41:28;12.83;92.59
71096;DHT22;58753;49.440;11.126;2023-05-10T04:43:54;12.86;92.58
71096;DHT22;58753;49.440;11.126;2023-05-10T04:46:19;12.85;92.23
71096;DHT22;58753;49.440;11.126;2023-05-10T04:48:44;12.82;91.59
71096;DHT22;58753;49.440;11.126;2023-05-10T04:51:10;12.79;91.74
71096;DHT22;58753;49.440;11.126;2023-05-10T04:53:35;12.79;91.92
71096;DHT22;58753;49.440;11.126;2023-05-10T04:56:01;12.75;91.95
71096;DHT22;58753;49.440;11.126;2023-05-10T04:58:26;12.81;91.56
71096;DHT22;58753;49.440;11.126;2023-05-10T05:00:51;12.79;91.59
71096;DHT22;58753;49.440;11.126;2023-05-10T05:03:17;12.85;91.56
71096;DHT22;58753;49.440;11.126;2023-05-10T05:05:43;12.83;91.26
71096;DHT22;58753;49.440;11.126;2023-05-10T05:08:09;12.83;91.14
71096;DHT22;58753;49.440;11.126;2023-05-10T05:10:34;12.85;91.38
71096;DHT22;58753;49.440;11.126;2023-05-10T05:13:00;12.89;91.36
71096;DHT22;58753;49.440;11.126;2023-05-10T05:15:25;12.89;91.18
71096;DHT22;58753;49.440;11.126;2023-05-10T05:17:50;12.89;90.82
71096;DHT22;58753;49.440;11.126;2023-05-10T05:20:16;12.86;90.65
71096;DHT22;58753;49.440;11.126;2023-05-10T05:22:42;12.85;90.49
71096;DHT22;58753;49.440;11.126;2023-05-10T05:25:08;12.85;90.44
71096;DHT22;58753;49.440;11.126;2023-05-10T05:27:33;12.86;91.03
71096;DHT22;58753;49.440;11.126;2023-05-10T05:29:58;12.86;90.44
71096;DHT22;58753;49.440;11.126;2023-05-10T05:32:24;12.85;90.51
71096;DHT22;58753;49.440;11.126;2023-05-10T05:34:50;12.88;90.53
71096;DHT22;58753;49.440;11.126;2023-05-10T05:37:17;12.86;90.05
71096;DHT22;58753;49.440;11.126;2023-05-10T05:39:43;12.86;89.88
71096;DHT22;58753;49.440;11.126;2023-05-10T05:42:12;12.91;89.65
71096;DHT22;58753;49.440;11.126;2023-05-10T05:44:38;12.91;90.01
71096;DHT22;58753;49.440;11.126;2023-05-10T05:47:04;12.88;89.53
71096;DHT22;58753;49.440;11.126;2023-05-10T05:49:30;12.89;89.64
71096;DHT22;58753;49.440;11.126;2023-05-10T05:52:02;12.91;89.56
71096;DHT22;58753;49.440;11.126;2023-05-10T05:54:28;12.91;89.39
71096;DHT22;58753;49.440;11.126;2023-05-10T05:56:57;12.91;89.07
71096;DHT22;58753;49.440;11.126;2023-05-10T05:59:23;12.95;89.41
71096;DHT22;58753;49.440;11.126;2023-05-10T06:01:48;12.99;89.52
71096;DHT22;58753;49.440;11.126;2023-05-10T06:04:14;12.99;89.08
71096;DHT22;58753;49.440;11.126;2023-05-10T06:06:39;13.05;89.46
71096;DHT22;58753;49.440;11.126;2023-05-10T06:09:05;13.09;89.11
71096;DHT22;58753;49.440;11.126;2023-05-10T06:11:30;13.07;88.65
71096;DHT22;58753;49.440;11.126;2023-05-10T06:13:57;13.07;88.54
71096;DHT22;58753;49.440;11.126;2023-05-10T06:16:23;13.05;87.82
71096;DHT22;58753;49.440;11.126;2023-05-10T06:18:48;13.06;88.38
71096;DHT22;58753;49.440;11.126;2023-05-10T06:21:14;13.12;88.07
71096;DHT22;58753;49.440;11.126;2023-05-10T06:23:40;13.16;88.53
71096;DHT22;58753;49.440;11.126;2023-05-10T06:26:05;13.19;88.28
71096;DHT22;58753;49.440;11.126;2023-05-10T06:28:30;13.22;87.75
71096;DHT22;58753;49.440;11.126;2023-05-10T06:30:57;13.27;87.98
71096;DHT22;58753;49.440;11.126;2023-05-10T06:33:22;13.35;87.62
71096;DHT22;58753;49.440;11.126;2023-05-10T06:35:48;13.42;87.68
71096;DHT22;58753;49.440;11.126;2023-05-10T06:38:13;13.40;86.92
71096;DHT22;58753;49.440;11.126;2023-05-10T06:40:42;13.46;87.17
71096;DHT22;58753;49.440;11.126;2023-05-10T06:43:08;13.56;87.19
71096;DHT22;58753;49.440;11.126;2023-05-10T06:45:33;13.66;87.33
71096;DHT22;58753;49.440;11.126;2023-05-10T06:47:58;13.73;87.11
71096;DHT22;58753;49.440;11.126;2023-05-10T06:50:24;13.81;86.59
71096;DHT22;58753;49.440;11.126;2023-05-10T06:52:50;13.88;86.86
71096;DHT22;58753;49.440;11.126;2023-05-10T06:55:15;13.89;85.51
71096;DHT22;58753;49.440;11.126;2023-05-10T06:57:41;13.87;84.95
71096;DHT22;58753;49.440;11.126;2023-05-10T07:00:06;13.88;85.19
71096;DHT22;58753;49.440;11.126;2023-05-10T07:02:32;13.87;84.49
71096;DHT22;58753;49.440;11.126;2023-05-10T07:04:58;13.91;84.91
71096;DHT22;58753;49.440;11.126;2023-05-10T07:07:23;13.92;84.50
71096;DHT22;58753;49.440;11.126;2023-05-10T07:09:49;13.91;84.30
71096;DHT22;58753;49.440;11.126;2023-05-10T07:12:15;13.94;83.79
71096;DHT22;58753;49.440;11.126;2023-05-10T07:14:40;14.00;84.14
71096;DHT22;58753;49.440;11.126;2023-05-10T07:17:06;14.08;83.30
71096;DHT22;58753;49.440;11.126;2023-05-10T07:19:31;14.12;83.12
71096;DHT22;58753;49.440;11.126;2023-05-10T07:21:58;14.11;83.08
71096;DHT22;58753;49.440;11.126;2023-05-10T07:24:23;14.14;82.97
71096;DHT22;58753;49.440;11.126;2023-05-10T07:26:49;14.15;82.62
71096;DHT22;58753;49.440;11.126;2023-05-10T07:29:15;14.17;82.23
71096;DHT22;58753;49.440;11.126;2023-05-10T07:31:40;14.18;81.40
71096;DHT22;58753;49.440;11.126;2023-05-10T07:34:08;14.14;80.98
71096;DHT22;58753;49.440;11.126;2023-05-10T07:36:33;14.17;81.21
71096;DHT22;58753;49.440;11.126;2023-05-10T07:38:59;14.19;81.26
71096;DHT22;58753;49.440;11.126;2023-05-10T07:41:24;14.17;81.03
71096;DHT22;58753;49.440;11.126;2023-05-10T07:43:49;14.11;80.54
71096;DHT22;58753;49.440;11.126;2023-05-10T07:46:15;14.04;80.63
71096;DHT22;58753;49.440;11.126;2023-05-10T07:48:40;14.04;80.42
71096;DHT22;58753;49.440;11.126;2023-05-10T07:51:06;13.95;80.37
71096;DHT22;58753;49.440;11.126;2023-05-10T07:53:34;14.02;80.46
71096;DHT22;58753;49.440;11.126;2023-05-10T07:56:26;14.04;80.61
71096;DHT22;58753;49.440;11.126;2023-05-10T07:58:55;14.09;81.09
71096;DHT22;58753;49.440;11.126;2023-05-10T08:01:20;14.14;80.73
71096;DHT22;58753;49.440;11.126;2023-05-10T08:03:46;14.15;80.72
71096;DHT22;58753;49.440;11.126;2023-05-10T08:06:11;14.25;80.63
71096;DHT22;58753;49.440;11.126;2023-05-10T08:08:37;14.26;80.51
71096;DHT22;58753;49.440;11.126;2023-05-10T08:11:03;14.33;80.45
71096;DHT22;58753;49.440;11.126;2023-05-10T08:13:28;14.42;80.50
71096;DHT22;58753;49.440;11.126;2023-05-10T08:15:54;14.56;80.53
71096;DHT22;58753;49.440;11.126;2023-05-10T08:18:19;14.59;79.90
71096;DHT22;58753;49.440;11.126;2023-05-10T08:20:45;14.70;80.02
71096;DHT22;58753;49.440;11.126;2023-05-10T08:23:12;14.72;79.27
71096;DHT22;58753;49.440;11.126;2023-05-10T08:25:38;14.76;79.10
71096;DHT22;58753;49.440;11.126;2023-05-10T08:28:03;14.72;78.06
71096;DHT22;58753;49.440;11.126;2023-05-10T08:30:28;14.80;78.19
71096;DHT22;58753;49.440;11.126;2023-05-10T08:32:54;14.89;78.37
71096;DHT22;58753;49.440;11.126;2023-05-10T08:35:19;14.97;78.43
71096;DHT22;58753;49.440;11.126;2023-05-10T08:37:44;15.04;77.93
71096;DHT22;58753;49.440;11.126;2023-05-10T08:40:11;15.14;77.74
71096;DHT22;58753;49.440;11.126;2023-05-10T08:42:40;15.16;77.29
71096;DHT22;58753;49.440;11.126;2023-05-10T08:45:09;15.24;77.68
71096;DHT22;58753;49.440;11.126;2023-05-10T08:47:36;15.27;77.01
71096;DHT22;58753;49.440;11.126;2023-05-10T08:50:03;15.34;76.28
71096;DHT22;58753;49.440;11.126;2023-05-10T08:52:30;15.41;75.65
71096;DHT22;58753;49.440;11.126;2023-05-10T08:54:58;15.48;75.81
71096;DHT22;58753;49.440;11.126;2023-05-10T08:57:23;15.53;75.98
71096;DHT22;58753;49.440;11.126;2023-05-10T08:59:49;15.57;75.84
71096;DHT22;58753;49.440;11.126;2023-05-10T09:02:14;15.58;75.90
71096;DHT22;58753;49.440;11.126;2023-05-10T09:04:40;15.53;75.28
71096;DHT22;58753;49.440;11.126;2023-05-10T09:07:07;15.43;75.46
71096;DHT22;58753;49.440;11.126;2023-05-10T09:09:33;15.35;75.68
71096;DHT22;58753;49.440;11.126;2023-05-10T09:11:59;15.20;75.91
71096;DHT22;58753;49.440;11.126;2023-05-10T09:14:25;14.90;76.02
71096;DHT22;58753;49.440;11.126;2023-05-10T09:16:50;14.72;77.96
71096;DHT22;58753;49.440;11.126;2023-05-10T09:19:16;14.39;79.31
71096;DHT22;58753;49.440;11.126;2023-05-10T09:21:41;14.01;80.36
71096;DHT22;58753;49.440;11.126;2023-05-10T09:24:08;13.60;80.82
71096;DHT22;58753;49.440;11.126;2023-05-10T09:26:34;13.39;82.54
71096;DHT22;58753;49.440;11.126;2023-05-10T09:29:01;13.28;83.31
71096;DHT22;58753;49.440;11.126;2023-05-10T09:31:50;13.22;83.98
71096;DHT22;58753;49.440;11.126;2023-05-10T09:34:28;13.27;84.91
71096;DHT22;58753;49.440;11.126;2023-05-10T09:36:59;13.37;85.46
71096;DHT22;58753;49.440;11.126;2023-05-10T09:39:38;13.33;85.54
71096;DHT22;58753;49.440;11.126;2023-05-10T09:42:12;13.33;85.86
71096;DHT22;58753;49.440;11.126;2023-05-10T09:44:38;13.36;86.65
71096;DHT22;58753;49.440;11.126;2023-05-10T09:47:03;13.43;86.31
71096;DHT22;58753;49.440;11.126;2023-05-10T09:49:29;13.43;86.59
71096;DHT22;58753;49.440;11.126;2023-05-10T09:52:05;13.54;87.03
71096;DHT22;58753;49.440;11.126;2023-05-10T09:54:31;13.70;87.46
71096;DHT22;58753;49.440;11.126;2023-05-10T09:56:56;13.75;87.19
71096;DHT22;58753;49.440;11.126;2023-05-10T09:59:25;13.84;87.19
71096;DHT22;58753;49.440;11.126;2023-05-10T10:01:52;13.91;87.21
71096;DHT22;58753;49.440;11.126;2023-05-10T10:04:19;14.04;87.28
71096;DHT22;58753;49.440;11.126;2023-05-10T10:06:45;14.09;87.21
71096;DHT22;58753;49.440;11.126;2023-05-10T10:09:11;14.26;87.31
71096;DHT22;58753;49.440;11.126;2023-05-10T10:11:38;14.43;87.65
71096;DHT22;58753;49.440;11.126;2023-05-10T10:14:04;14.62;87.49
71096;DHT22;58753;49.440;11.126;2023-05-10T10:16:30;14.72;86.59
71096;DHT22;58753;49.440;11.126;2023-05-10T10:18:56;14.89;86.18
71096;DHT22;58753;49.440;11.126;2023-05-10T10:21:22;14.89;85.70
71096;DHT22;58753;49.440;11.126;2023-05-10T10:23:48;15.06;85.12
71096;DHT22;58753;49.440;11.126;2023-05-10T10:26:14;15.10;83.61
71096;DHT22;58753;49.440;11.126;2023-05-10T10:33:59;15.57;82.11
71096;DHT22;58753;49.440;11.126;2023-05-10T10:36:25;15.65;81.23
71096;DHT22;58753;49.440;11.126;2023-05-10T10:38:56;15.82;81.60
71096;DHT22;58753;49.440;11.126;2023-05-10T10:41:36;15.88;80.25
71096;DHT22;58753;49.440;11.126;2023-05-10T10:49:23;15.57;77.47
71096;DHT22;58753;49.440;11.126;2023-05-10T10:52:14;15.48;77.81
71096;DHT22;58753;49.440;11.126;2023-05-10T10:54:41;15.34;76.71
71096;DHT22;58753;49.440;11.126;2023-05-10T10:57:14;15.22;76.86
71096;DHT22;58753;49.440;11.126;2023-05-10T10:59:43;15.19;77.63
71096;DHT22;58753;49.440;11.126;2023-05-10T11:02:09;15.11;77.91
71096;DHT22;58753;49.440;11.126;2023-05-10T11:04:41;15.08;78.05
71096;DHT22;58753;49.440;11.126;2023-05-10T11:07:18;15.03;77.99
71096;DHT22;58753;49.440;11.126;2023-05-10T11:09:46;14.94;77.58
71096;DHT22;58753;49.440;11.126;2023-05-10T11:12:12;14.83;76.58
71096;DHT22;58753;49.440;11.126;2023-05-10T11:14:37;14.79;76.64
71096;DHT22;58753;49.440;11.126;2023-05-10T11:17:22;14.84;77.19
71096;DHT22;58753;49.440;11.126;2023-05-10T11:20:10;14.89;76.93
71096;DHT22;58753;49.440;11.126;2023-05-10T11:22:54;14.94;76.97
71096;DHT22;58753;49.440;11.126;2023-05-10T11:25:26;15.02;76.81
71096;DHT22;58753;49.440;11.126;2023-05-10T11:27:52;15.10;76.75
71096;DHT22;58753;49.440;11.126;2023-05-10T11:30:17;15.22;76.66
71096;DHT22;58753;49.440;11.126;2023-05-10T11:32:43;15.26;75.97
71096;DHT22;58753;49.440;11.126;2023-05-10T11:35:10;15.38;76.07
71096;DHT22;58753;49.440;11.126;2023-05-10T11:37:37;15.45;75.11
71096;DHT22;58753;49.440;11.126;2023-05-10T11:40:09;15.50;74.81
71096;DHT22;58753;49.440;11.126;2023-05-10T11:42:38;15.59;74.86
71096;DHT22;58753;49.440;11.126;2023-05-10T11:45:05;15.74;74.98
71096;DHT22;58753;49.440;11.126;2023-05-10T11:47:30;15.82;74.56
71096;DHT22;58753;49.440;11.126;2023-05-10T11:49:57;15.82;72.60
71096;DHT22;58753;49.440;11.126;2023-05-10T11:52:23;15.89;72.48
71096;DHT22;58753;49.440;11.126;2023-05-10T11:54:52;16.01;73.28
71096;DHT22;58753;49.440;11.126;2023-05-10T11:57:19;16.05;73.36
71096;DHT22;58753;49.440;11.126;2023-05-10T11:59:46;16.06;72.77
71096;DHT22;58753;49.440;11.126;2023-05-10T12:02:18;16.10;72.37
71096;DHT22;58753;49.440;11.126;2023-05-10T12:04:44;16.13;73.12
71096;DHT22;58753;49.440;11.126;2023-05-10T12:07:10;16.13;72.30
71096;DHT22;58753;49.440;11.126;2023-05-10T12:09:35;16.09;71.81
71096;DHT22;58753;49.440;11.126;2023-05-10T12:12:02;16.10;72.27
71096;DHT22;58753;49.440;11.126;2023-05-10T12:14:27;16.13;72.93
71096;DHT22;58753;49.440;11.126;2023-05-10T12:16:54;16.13;72.74
71096;DHT22;58753;49.440;11.126;2023-05-10T12:19:22;16.10;72.93
71096;DHT22;58753;49.440;11.126;2023-05-10T12:21:48;16.10;73.37
71096;DHT22;58753;49.440;11.126;2023-05-10T12:24:13;16.10;73.31
71096;DHT22;58753;49.440;11.126;2023-05-10T12:26:41;16.05;73.16
71096;DHT22;58753;49.440;11.126;2023-05-10T12:29:14;15.99;72.93
71096;DHT22;58753;49.440;11.126;2023-05-10T12:31:57;15.95;72.78
71096;DHT22;58753;49.440;11.126;2023-05-10T12:34:33;15.95;73.04
71096;DHT22;58753;49.440;11.126;2023-05-10T12:37:00;15.96;72.83
71096;DHT22;58753;49.440;11.126;2023-05-10T12:39:26;16.04;72.94
71096;DHT22;58753;49.440;11.126;2023-05-10T12:41:51;16.02;72.46
71096;DHT22;58753;49.440;11.126;2023-05-10T12:44:17;16.08;72.30
71096;DHT22;58753;49.440;11.126;2023-05-10T12:46:43;16.13;71.78
71096;DHT22;58753;49.440;11.126;2023-05-10T12:49:08;16.15;71.65
71096;DHT22;58753;49.440;11.126;2023-05-10T12:51:34;16.19;70.79
71096;DHT22;58753;49.440;11.126;2023-05-10T12:53:59;16.25;71.01
71096;DHT22;58753;49.440;11.126;2023-05-10T12:56:25;16.28;70.46
71096;DHT22;58753;49.440;11.126;2023-05-10T12:58:50;16.32;70.37
71096;DHT22;58753;49.440;11.126;2023-05-10T13:01:16;16.32;68.95
71096;DHT22;58753;49.440;11.126;2023-05-10T13:03:41;16.29;68.38
71096;DHT22;58753;49.440;11.126;2023-05-10T13:06:08;16.32;68.31
71096;DHT22;58753;49.440;11.126;2023-05-10T13:08:33;16.36;68.35
71096;DHT22;58753;49.440;11.126;2023-05-10T13:11:00;16.42;68.11
71096;DHT22;58753;49.440;11.126;2023-05-10T13:13:25;16.50;68.63
71096;DHT22;58753;49.440;11.126;2023-05-10T13:15:51;16.60;68.62
71096;DHT22;58753;49.440;11.126;2023-05-10T13:18:16;16.66;68.32
71096;DHT22;58753;49.440;11.126;2023-05-10T13:20:42;16.76;68.73
71096;DHT22;58753;49.440;11.126;2023-05-10T13:23:09;16.79;68.51
71096;DHT22;58753;49.440;11.126;2023-05-10T13:25:35;16.88;68.32
71096;DHT22;58753;49.440;11.126;2023-05-10T13:28:00;16.90;68.16
71096;DHT22;58753;49.440;11.126;2023-05-10T13:30:26;16.94;67.95
71096;DHT22;58753;49.440;11.126;2023-05-10T13:32:51;16.90;67.26
71096;DHT22;58753;49.440;11.126;2023-05-10T13:35:17;16.85;67.23
71096;DHT22;58753;49.440;11.126;2023-05-10T13:37:42;16.91;68.11
71096;DHT22;58753;49.440;11.126;2023-05-10T13:40:08;16.97;68.43
71096;DHT22;58753;49.440;11.126;2023-05-10T13:42:33;16.95;68.76
71096;DHT22;58753;49.440;11.126;2023-05-10T13:44:59;16.83;67.63
71096;DHT22;58753;49.440;11.126;2023-05-10T13:47:26;16.59;66.99
71096;DHT22;58753;49.440;11.126;2023-05-10T13:49:52;16.46;66.85
71096;DHT22;58753;49.440;11.126;2023-05-10T13:52:17;16.46;67.15
71096;DHT22;58753;49.440;11.126;2023-05-10T13:54:43;16.48;67.85
71096;DHT22;58753;49.440;11.126;2023-05-10T13:57:08;16.60;68.45
71096;DHT22;58753;49.440;11.126;2023-05-10T13:59:34;16.64;68.37
71096;DHT22;58753;49.440;11.126;2023-05-10T14:02:00;16.74;69.13
71096;DHT22;58753;49.440;11.126;2023-05-10T14:04:28;16.88;69.66
71096;DHT22;58753;49.440;11.126;2023-05-10T14:06:53;17.14;70.10
71096;DHT22;58753;49.440;11.126;2023-05-10T14:09:19;17.18;68.69
71096;DHT22;58753;49.440;11.126;2023-05-10T14:11:45;17.21;69.05
71096;DHT22;58753;49.440;11.126;2023-05-10T14:14:10;17.15;68.67
71096;DHT22;58753;49.440;11.126;2023-05-10T14:16:36;17.07;69.17
71096;DHT22;58753;49.440;11.126;2023-05-10T14:19:01;17.00;69.69
71096;DHT22;58753;49.440;11.126;2023-05-10T14:21:27;17.00;70.33
71096;DHT22;58753;49.440;11.126;2023-05-10T14:23:55;16.87;70.30
71096;DHT22;58753;49.440;11.126;2023-05-10T14:26:21;16.85;71.24
71096;DHT22;58753;49.440;11.126;2023-05-10T14:28:46;16.77;70.30
71096;DHT22;58753;49.440;11.126;2023-05-10T14:31:13;16.77;70.77
71096;DHT22;58753;49.440;11.126;2023-05-10T14:33:40;16.80;70.95
71096;DHT22;58753;49.440;11.126;2023-05-10T14:36:06;16.79;70.57
71096;DHT22;58753;49.440;11.126;2023-05-10T14:38:31;16.81;70.04
71096;DHT22;58753;49.440;11.126;2023-05-10T14:40:57;16.76;69.21
71096;DHT22;58753;49.440;11.126;2023-05-10T14:43:22;16.84;68.87
71096;DHT22;58753;49.440;11.126;2023-05-10T14:45:48;16.85;68.64
71096;DHT22;58753;49.440;11.126;2023-05-10T14:48:13;16.88;68.87
71096;DHT22;58753;49.440;11.126;2023-05-10T14:50:42;16.85;68.09
71096;DHT22;58753;49.440;11.126;2023-05-10T14:53:07;16.80;68.11
71096;DHT22;58753;49.440;11.126;2023-05-10T14:55:33;16.80;68.41
71096;DHT22;58753;49.440;11.126;2023-05-10T14:57:59;16.80;68.17
71096;DHT22;58753;49.440;11.126;2023-05-10T15:00:25;16.80;67.78
71096;DHT22;58753;49.440;11.126;2023-05-10T15:02:50;16.84;68.24
71096;DHT22;58753;49.440;11.126;2023-05-10T15:05:16;16.87;68.11
71096;DHT22;58753;49.440;11.126;2023-05-10T15:07:41;16.95;67.89
71096;DHT22;58753;49.440;11.126;2023-05-10T15:10:09;17.03;66.77
71096;DHT22;58753;49.440;11.126;2023-05-10T15:12:35;17.06;66.68
71096;DHT22;58753;49.440;11.126;2023-05-10T15:15:00;17.08;66.52
71096;DHT22;58753;49.440;11.126;2023-05-10T15:17:26;17.01;65.77
71096;DHT22;58753;49.440;11.126;2023-05-10T15:19:51;17.03;66.71
71096;DHT22;58753;49.440;11.126;2023-05-10T15:22:17;16.88;66.16
71096;DHT22;58753;49.440;11.126;2023-05-10T15:24:43;16.76;66.47
71096;DHT22;58753;49.440;11.126;2023-05-10T15:27:08;16.63;65.76
71096;DHT22;58753;49.440;11.126;2023-05-10T15:29:33;16.40;65.06
71096;DHT22;58753;49.440;11.126;2023-05-10T15:32:01;16.25;64.55
71096;DHT22;58753;49.440;11.126;2023-05-10T15:34:27;16.15;64.10
71096;DHT22;58753;49.440;11.126;2023-05-10T15:36:53;16.09;63.32
71096;DHT22;58753;49.440;11.126;2023-05-10T15:39:18;16.10;63.20
71096;DHT22;58753;49.440;11.126;2023-05-10T15:41:43;16.12;63.08